createdAt,value
2022-11-01T00:02:59.536Z,103.53
2022-11-01T00:06:19.297Z,91.05
2022-11-01T00:08:47.384Z,98.35
2022-11-01T00:11:16.797Z,88.50
2022-11-01T00:13:53.019Z,86.75
2022-11-01T00:16:21.189Z,91.32
2022-11-01T00:19:04.579Z,90.68
2022-11-01T00:21:32.713Z,92.18
2022-11-01T00:24:00.738Z,95.85
2022-11-01T00:26:27.684Z,92.85
2022-11-01T00:29:21.520Z,86.68
2022-11-01T00:31:54.545Z,87.78
2022-11-01T00:34:29.835Z,94.05
2022-11-01T00:37:05.075Z,84.13
2022-11-01T00:39:55.394Z,83.95
2022-11-01T00:42:33.009Z,86.43
2022-11-01T00:45:18.767Z,85.03
2022-11-01T00:48:08.437Z,84.40
2022-11-01T00:50:52.067Z,82.65
2022-11-01T00:53:20.759Z,70.50
2022-11-01T00:55:48.785Z,76.97
2022-11-01T00:58:15.769Z,74.25
2022-11-01T01:00:42.728Z,61.72
2022-11-01T01:03:10.749Z,66.05
2022-11-01T01:05:38.007Z,61.63
2022-11-01T01:08:05.365Z,61.97
2022-11-01T01:10:32.564Z,53.50
2022-11-01T01:12:59.790Z,58.83
2022-11-01T01:15:27.039Z,57.55
2022-11-01T01:17:58.709Z,61.65
2022-11-01T01:20:26.974Z,54.15
2022-11-01T01:22:57.206Z,56.83
2022-11-01T01:25:29.582Z,55.05
2022-11-01T01:27:57.777Z,54.33
2022-11-01T01:30:31.846Z,53.92
2022-11-01T01:33:05.728Z,51.03
2022-11-01T01:35:42.904Z,53.67
2022-11-01T01:38:18.031Z,57.13
2022-11-01T01:40:47.058Z,58.45
2022-11-01T01:43:21.141Z,53.80
2022-11-01T01:46:25.505Z,52.47
2022-11-01T01:49:01.635Z,55.55
2022-11-01T01:51:43.003Z,51.28
2022-11-01T01:54:24.206Z,50.03
2022-11-01T01:56:55.258Z,52.33
2022-11-01T02:00:01.158Z,53.42
2022-11-01T02:02:53.155Z,44.47
2022-11-01T02:05:34.175Z,47.15
2022-11-01T02:08:57.052Z,51.67
2022-11-01T02:12:01.279Z,44.53
2022-11-01T02:14:38.298Z,48.15
2022-11-01T02:17:49.607Z,43.35
2022-11-01T02:21:04.434Z,45.72
2022-11-01T02:27:01.748Z,38.17
2022-11-01T02:30:16.004Z,37.80
2022-11-01T02:33:22.384Z,40.42
2022-11-01T02:39:47.505Z,36.97
2022-11-01T02:43:05.315Z,37.03
2022-11-01T02:46:21.240Z,36.58
2022-11-01T02:48:58.520Z,32.10
2022-11-01T02:51:44.505Z,32.17
2022-11-01T02:58:13.165Z,26.48
2022-11-01T03:00:43.066Z,28.05
2022-11-01T03:03:33.099Z,26.73
2022-11-01T03:06:52.794Z,27.45
2022-11-01T03:09:39.997Z,21.90
2022-11-01T03:12:54.632Z,20.30
2022-11-01T03:15:29.052Z,20.05
2022-11-01T03:18:10.865Z,18.00
2022-11-01T03:21:15.924Z,20.20
2022-11-01T03:24:03.283Z,18.40
2022-11-01T03:26:43.408Z,18.70
2022-11-01T03:29:14.555Z,18.15
2022-11-01T03:31:44.998Z,17.40
2022-11-01T03:34:15.178Z,13.65
2022-11-01T03:36:54.337Z,16.73
2022-11-01T03:39:31.941Z,14.63
2022-11-01T03:42:15.913Z,17.17
2022-11-01T03:47:17.201Z,15.93
2022-11-01T03:50:13.028Z,14.85
2022-11-01T03:52:41.187Z,13.75
2022-11-01T03:55:43.427Z,13.38
2022-11-01T03:58:21.564Z,14.02
2022-11-01T04:00:48.771Z,14.77
2022-11-01T04:03:37.838Z,12.52
2022-11-01T04:06:11.365Z,13.60
2022-11-01T04:09:15.453Z,12.95
2022-11-01T04:12:01.535Z,12.68
2022-11-01T04:14:51.817Z,12.75
2022-11-01T04:17:42.917Z,14.77
2022-11-01T04:20:36.021Z,13.10
2022-11-01T04:23:13.786Z,13.68
2022-11-01T04:26:04.419Z,11.18
2022-11-01T04:28:37.477Z,13.10
2022-11-01T04:31:34.045Z,13.02
2022-11-01T04:34:13.334Z,12.25
2022-11-01T04:36:40.287Z,11.63
2022-11-01T04:39:09.449Z,13.65
2022-11-01T04:41:50.809Z,11.50
2022-11-01T04:44:20.015Z,11.38
2022-11-01T04:47:18.172Z,14.57
2022-11-01T04:50:22.304Z,11.80
2022-11-01T04:53:13.620Z,13.57
2022-11-01T04:56:06.314Z,10.80
2022-11-01T04:58:49.437Z,13.48
2022-11-01T05:01:16.768Z,14.23
2022-11-01T05:03:43.843Z,12.45
2022-11-01T05:06:10.917Z,11.75
2022-11-01T05:08:37.969Z,12.43
2022-11-01T05:11:06.138Z,14.52
2022-11-01T05:13:37.207Z,12.35
2022-11-01T05:16:19.784Z,12.30
2022-11-01T05:18:57.426Z,11.43
2022-11-01T05:21:33.488Z,12.38
2022-11-01T05:24:04.678Z,13.73
2022-11-01T05:26:34.975Z,12.45
2022-11-01T05:29:08.798Z,12.50
2022-11-01T05:34:07.055Z,11.50
2022-11-01T05:36:34.098Z,12.77
2022-11-01T05:39:01.131Z,12.57
2022-11-01T05:41:42.595Z,14.07
2022-11-01T05:44:09.790Z,10.93
2022-11-01T05:46:37.074Z,13.40
2022-11-01T05:49:06.593Z,12.23
2022-11-01T05:51:34.121Z,12.07
2022-11-01T05:54:03.188Z,11.48
2022-11-01T05:56:33.356Z,11.93
2022-11-01T05:59:02.708Z,14.50
2022-11-01T06:01:29.985Z,13.05
2022-11-01T06:04:02.202Z,13.60
2022-11-01T06:06:30.394Z,14.27
2022-11-01T06:08:59.188Z,16.33
2022-11-01T06:11:28.158Z,14.60
2022-11-01T06:13:59.263Z,12.38
2022-11-01T06:16:29.040Z,14.60
2022-11-01T06:18:57.644Z,13.32
2022-11-01T06:21:30.170Z,12.20
2022-11-01T06:23:59.798Z,13.30
2022-11-01T06:26:26.976Z,12.23
2022-11-01T06:28:53.965Z,17.40
2022-11-01T06:31:22.600Z,17.52
2022-11-01T06:33:52.396Z,11.65
2022-11-01T06:36:20.737Z,17.70
2022-11-01T06:38:47.925Z,12.38
2022-11-01T06:41:17.148Z,13.45
2022-11-01T06:43:44.739Z,11.18
2022-11-01T06:46:11.777Z,13.43
2022-11-01T06:48:38.939Z,12.50
2022-11-01T06:51:08.308Z,11.68
2022-11-01T06:53:42.147Z,10.23
2022-11-01T06:56:13.636Z,11.80
2022-11-01T06:58:41.229Z,13.70
2022-11-01T07:01:08.460Z,16.95
2022-11-01T07:03:43.830Z,15.80
2022-11-01T07:06:16.215Z,11.27
2022-11-01T07:08:45.100Z,11.80
2022-11-01T07:11:20.134Z,11.77
2022-11-01T07:14:00.901Z,9.40
2022-11-01T07:16:45.144Z,13.73
2022-11-01T07:19:19.376Z,13.13
2022-11-01T07:21:47.534Z,12.95
2022-11-01T07:24:15.078Z,10.38
2022-11-01T07:26:51.478Z,11.80
2022-11-01T07:29:21.360Z,12.70
2022-11-01T07:31:50.495Z,11.50
2022-11-01T07:34:19.943Z,10.57
2022-11-01T07:36:48.508Z,10.30
2022-11-01T07:39:19.217Z,7.60
2022-11-01T07:41:47.418Z,8.93
2022-11-01T07:44:19.586Z,8.68
2022-11-01T07:46:50.554Z,9.07
2022-11-01T07:49:23.518Z,8.15
2022-11-01T07:51:50.942Z,8.70
2022-11-01T07:54:22.871Z,8.73
2022-11-01T07:57:08.957Z,6.40
2022-11-01T07:59:45.931Z,9.90
2022-11-01T08:03:07.739Z,8.15
2022-11-01T08:06:30.629Z,6.93
2022-11-01T08:08:57.760Z,8.07
2022-11-01T08:11:25.839Z,6.57
2022-11-01T08:13:56.047Z,7.32
2022-11-01T08:16:27.429Z,9.02
2022-11-01T08:18:55.445Z,7.40
2022-11-01T08:21:25.429Z,9.10
2022-11-01T08:23:54.471Z,9.70
2022-11-01T08:26:34.919Z,12.13
2022-11-01T08:29:07.860Z,12.45
2022-11-01T08:31:44.206Z,12.05
2022-11-01T08:34:15.972Z,11.63
2022-11-01T08:36:44.831Z,12.52
2022-11-01T08:39:13.877Z,14.45
2022-11-01T08:41:41.865Z,12.73
2022-11-01T08:44:09.033Z,11.43
2022-11-01T08:46:39.388Z,12.27
2022-11-01T08:49:18.919Z,7.28
2022-11-01T08:51:46.956Z,8.32
2022-11-01T08:54:16.285Z,7.07
2022-11-01T08:56:50.440Z,7.68
2022-11-01T08:59:17.499Z,10.68
2022-11-01T09:01:44.563Z,8.80
2022-11-01T09:04:12.681Z,8.05
2022-11-01T09:06:45.601Z,6.50
2022-11-01T09:09:30.984Z,7.27
2022-11-01T09:12:01.024Z,7.20
2022-11-01T09:14:29.186Z,4.25
2022-11-01T09:16:58.694Z,8.27
2022-11-01T09:19:26.054Z,7.43
2022-11-01T09:22:01.300Z,8.55
2022-11-01T09:24:29.584Z,6.47
2022-11-01T09:26:57.543Z,7.47
2022-11-01T09:29:24.570Z,5.43
2022-11-01T09:31:53.504Z,5.32
2022-11-01T09:34:24.508Z,8.95
2022-11-01T09:37:13.082Z,5.05
2022-11-01T09:39:40.131Z,6.20
2022-11-01T09:42:36.064Z,5.57
2022-11-01T09:45:16.203Z,6.82
2022-11-01T09:47:54.224Z,4.85
2022-11-01T09:50:27.422Z,4.90
2022-11-01T09:52:56.851Z,5.78
2022-11-01T09:55:41.942Z,5.53
2022-11-01T09:58:39.861Z,4.75
2022-11-01T10:01:51.524Z,8.45
2022-11-01T10:04:56.364Z,5.68
2022-11-01T10:07:32.665Z,7.47
2022-11-01T10:10:12.272Z,9.00
2022-11-01T10:12:47.625Z,7.20
2022-11-01T10:15:51.964Z,7.20
2022-11-01T10:18:28.446Z,6.95
2022-11-01T10:21:10.543Z,6.00
2022-11-01T10:23:50.505Z,6.07
2022-11-01T10:26:30.516Z,5.63
2022-11-01T10:29:09.367Z,7.20
2022-11-01T10:31:45.983Z,5.60
2022-11-01T10:34:22.278Z,6.15
2022-11-01T10:36:56.522Z,8.05
2022-11-01T10:39:54.125Z,6.45
2022-11-01T10:42:24.103Z,5.00
2022-11-01T10:44:55.663Z,5.80
2022-11-01T10:47:25.209Z,9.02
2022-11-01T10:50:07.937Z,5.50
2022-11-01T10:52:48.424Z,10.18
2022-11-01T10:55:23.165Z,6.65
2022-11-01T10:58:05.366Z,5.57
2022-11-01T11:00:56.244Z,5.28
2022-11-01T11:03:27.243Z,6.07
2022-11-01T11:06:07.826Z,7.97
2022-11-01T11:08:38.967Z,4.45
2022-11-01T11:11:11.722Z,6.20
2022-11-01T11:13:45.963Z,7.60
2022-11-01T11:16:30.635Z,7.40
2022-11-01T11:19:36.166Z,6.10
2022-11-01T11:22:07.809Z,5.15
2022-11-01T11:24:45.123Z,5.20
2022-11-01T11:27:34.685Z,9.32
2022-11-01T11:30:08.899Z,5.35
2022-11-01T11:32:40.863Z,5.43
2022-11-01T11:35:14.440Z,4.95
2022-11-01T11:37:56.045Z,5.13
2022-11-01T11:40:48.907Z,5.72
2022-11-01T11:43:34.441Z,5.20
2022-11-01T11:46:06.244Z,7.10
2022-11-01T11:48:48.408Z,7.03
2022-11-01T11:51:19.304Z,5.70
2022-11-01T11:54:34.568Z,5.57
2022-11-01T11:57:27.451Z,5.13
2022-11-01T12:00:06.549Z,5.45
2022-11-01T12:02:37.113Z,7.38
2022-11-01T12:05:08.948Z,7.97
2022-11-01T12:07:59.145Z,5.82
2022-11-01T12:10:47.964Z,6.95
2022-11-01T12:13:27.764Z,4.85
2022-11-01T12:16:18.597Z,6.72
2022-11-01T12:18:55.810Z,5.35
2022-11-01T12:21:36.305Z,8.13
2022-11-01T12:24:25.265Z,6.35
2022-11-01T12:27:02.062Z,6.45
2022-11-01T12:30:09.005Z,5.78
2022-11-01T12:32:59.734Z,6.07
2022-11-01T12:35:31.187Z,5.15
2022-11-01T12:38:01.707Z,7.85
2022-11-01T12:40:37.282Z,5.80
2022-11-01T12:43:16.965Z,7.40
2022-11-01T12:46:23.303Z,8.63
2022-11-01T12:49:11.746Z,6.80
2022-11-01T12:51:44.410Z,6.18
2022-11-01T12:54:27.643Z,4.63
2022-11-01T12:56:57.052Z,6.83
2022-11-01T12:59:30.954Z,4.88
2022-11-01T13:02:30.581Z,7.05
2022-11-01T13:05:06.029Z,6.93
2022-11-01T13:07:53.446Z,5.95
2022-11-01T13:10:48.139Z,6.20
2022-11-01T13:13:47.565Z,6.82
2022-11-01T13:16:34.762Z,6.03
2022-11-01T13:19:35.103Z,5.72
2022-11-01T13:22:54.893Z,9.88
2022-11-01T13:25:48.263Z,7.03
2022-11-01T13:28:44.671Z,6.68
2022-11-01T13:31:45.580Z,7.88
2022-11-01T13:34:33.375Z,8.27
2022-11-01T13:37:11.235Z,6.20
2022-11-01T13:40:06.922Z,4.90
2022-11-01T13:42:41.925Z,6.55
2022-11-01T13:45:38.586Z,6.85
2022-11-01T13:48:20.878Z,6.07
2022-11-01T13:51:12.458Z,8.90
2022-11-01T13:53:43.416Z,8.20
2022-11-01T13:56:31.100Z,5.32
2022-11-01T13:58:59.257Z,6.30
2022-11-01T14:01:31.496Z,7.28
2022-11-01T14:04:12.303Z,9.23
2022-11-01T14:06:44.533Z,7.65
2022-11-01T14:09:27.940Z,7.60
2022-11-01T14:12:32.401Z,6.90
2022-11-01T14:15:27.203Z,6.78
2022-11-01T14:18:03.738Z,7.35
2022-11-01T14:20:40.722Z,7.18
2022-11-01T14:23:33.499Z,6.10
2022-11-01T14:26:18.738Z,7.18
2022-11-01T14:28:59.582Z,8.05
2022-11-01T14:31:39.502Z,7.85
2022-11-01T14:34:09.832Z,6.80
2022-11-01T14:36:46.165Z,7.47
2022-11-01T14:39:19.839Z,8.30
2022-11-01T14:41:55.958Z,12.52
2022-11-01T14:44:35.238Z,9.75
2022-11-01T14:47:19.338Z,10.63
2022-11-01T14:52:41.258Z,8.95
2022-11-01T14:55:32.599Z,11.07
2022-11-01T14:58:23.683Z,9.55
2022-11-01T15:00:57.407Z,13.52
2022-11-01T15:05:53.836Z,10.77
2022-11-01T15:08:36.344Z,9.60
2022-11-01T15:11:06.264Z,10.80
2022-11-01T15:13:39.352Z,11.45
2022-11-01T15:16:26.957Z,11.27
2022-11-01T15:19:02.936Z,13.18
2022-11-01T15:21:31.491Z,13.45
2022-11-01T15:24:04.062Z,11.55
2022-11-01T15:27:14.200Z,12.05
2022-11-01T15:29:43.931Z,12.90
2022-11-01T15:32:32.107Z,13.77
2022-11-01T15:35:04.504Z,9.82
2022-11-01T15:37:37.318Z,11.25
2022-11-01T15:40:27.568Z,14.37
2022-11-01T15:43:02.294Z,16.80
2022-11-01T15:45:33.777Z,18.35
2022-11-01T15:48:08.758Z,18.02
2022-11-01T15:50:39.090Z,17.45
2022-11-01T15:53:14.646Z,14.82
2022-11-01T15:55:55.198Z,15.40
2022-11-01T15:58:38.924Z,13.80
2022-11-01T16:01:23.503Z,15.10
2022-11-01T16:04:10.191Z,13.35
2022-11-01T16:06:52.299Z,13.00
2022-11-01T16:09:46.313Z,16.50
2022-11-01T16:12:36.378Z,14.48
2022-11-01T16:15:20.407Z,22.30
2022-11-01T16:20:32.405Z,20.15
2022-11-01T16:23:02.606Z,20.08
2022-11-01T16:25:34.161Z,20.38
2022-11-01T16:28:05.133Z,23.15
2022-11-01T16:30:53.430Z,23.70
2022-11-01T16:33:44.805Z,43.78
2022-11-01T16:36:48.668Z,44.13
2022-11-01T16:39:32.290Z,35.13
2022-11-01T16:41:59.681Z,28.20
2022-11-01T16:44:56.143Z,39.00
2022-11-01T16:47:47.874Z,30.90
2022-11-01T16:50:46.608Z,25.52
2022-11-01T16:53:13.730Z,32.00
2022-11-01T16:56:23.119Z,30.88
2022-11-01T16:59:22.785Z,23.38
2022-11-01T17:02:26.053Z,17.77
2022-11-01T17:06:01.592Z,19.35
2022-11-01T17:11:02.052Z,17.25
2022-11-01T17:13:30.246Z,18.23
2022-11-01T17:16:00.911Z,20.77
2022-11-01T17:18:38.575Z,18.55
2022-11-01T17:21:24.470Z,18.38
2022-11-01T17:24:17.541Z,17.60
2022-11-01T17:26:45.953Z,17.50
2022-11-01T17:29:30.131Z,19.38
2022-11-01T17:32:10.219Z,19.67
2022-11-01T17:34:44.653Z,20.23
2022-11-01T17:37:17.830Z,18.80
2022-11-01T17:39:52.656Z,19.08
2022-11-01T17:42:20.185Z,18.50
2022-11-01T17:44:52.133Z,20.73
2022-11-01T17:47:36.405Z,16.70
2022-11-01T17:50:42.565Z,15.52
2022-11-01T17:53:13.348Z,14.90
2022-11-01T17:55:56.261Z,17.75
2022-11-01T17:58:33.491Z,19.60
2022-11-01T18:01:09.156Z,13.68
2022-11-01T18:03:37.254Z,15.23
2022-11-01T18:06:07.618Z,19.00
2022-11-01T18:08:48.119Z,18.27
2022-11-01T18:11:49.467Z,20.88
2022-11-01T18:14:23.096Z,18.88
2022-11-01T18:17:35.337Z,20.60
2022-11-01T18:20:32.399Z,22.77
2022-11-01T18:23:19.270Z,18.60
2022-11-01T18:25:53.937Z,15.25
2022-11-01T18:28:32.196Z,18.45
2022-11-01T18:31:24.205Z,18.17
2022-11-01T18:34:38.457Z,20.40
2022-11-01T18:37:26.698Z,19.23
2022-11-01T18:40:33.814Z,23.85
2022-11-01T18:43:38.871Z,22.52
2022-11-01T18:46:25.228Z,16.08
2022-11-01T18:49:14.009Z,14.90
2022-11-01T18:51:43.348Z,15.32
2022-11-01T18:54:12.237Z,15.45
2022-11-01T18:56:48.909Z,16.15
2022-11-01T18:59:33.274Z,16.17
2022-11-01T19:02:27.796Z,13.40
2022-11-01T19:05:18.984Z,14.50
2022-11-01T19:08:26.223Z,16.23
2022-11-01T19:11:16.596Z,16.23
2022-11-01T19:14:40.976Z,14.35
2022-11-01T19:17:36.697Z,18.03
2022-11-01T19:20:21.578Z,15.48
2022-11-01T19:23:10.725Z,14.40
2022-11-01T19:25:44.183Z,17.23
2022-11-01T19:28:26.651Z,16.40
2022-11-01T19:30:58.408Z,16.08
2022-11-01T19:33:37.971Z,19.52
2022-11-01T19:36:15.332Z,16.63
2022-11-01T19:38:45.715Z,19.85
2022-11-01T19:41:35.414Z,17.35
2022-11-01T19:44:14.809Z,16.80
2022-11-01T19:47:30.788Z,17.23
2022-11-01T19:49:59.901Z,20.13
2022-11-01T19:52:44.525Z,17.73
2022-11-01T19:55:35.386Z,21.73
2022-11-01T19:58:43.380Z,22.55
2022-11-01T20:01:24.996Z,17.35
2022-11-01T20:04:01.855Z,19.30
2022-11-01T20:06:36.170Z,21.27
2022-11-01T20:09:12.591Z,24.13
2022-11-01T20:11:46.368Z,24.65
2022-11-01T20:16:51.236Z,22.52
2022-11-01T20:19:24.016Z,23.55
2022-11-01T20:21:52.784Z,23.95
2022-11-01T20:24:26.522Z,29.13
2022-11-01T20:29:29.390Z,30.85
2022-11-01T20:32:01.989Z,28.70
2022-11-01T20:34:29.155Z,29.15
2022-11-01T20:37:27.040Z,23.13
2022-11-01T20:40:04.373Z,25.30
2022-11-01T20:43:13.623Z,23.15
2022-11-01T20:45:51.481Z,22.13
2022-11-01T20:48:19.587Z,25.75
2022-11-01T20:51:02.625Z,27.13
2022-11-01T20:53:30.929Z,25.65
2022-11-01T20:56:07.475Z,24.85
2022-11-01T20:58:40.873Z,22.75
2022-11-01T21:01:19.606Z,24.20
2022-11-01T21:03:48.356Z,22.08
2022-11-01T21:06:31.189Z,21.20
2022-11-01T21:08:59.576Z,21.10
2022-11-01T21:11:44.442Z,22.88
2022-11-01T21:14:23.095Z,21.65
2022-11-01T21:16:53.468Z,21.67
2022-11-01T21:19:30.270Z,24.23
2022-11-01T21:22:01.119Z,21.67
2022-11-01T21:24:34.711Z,22.02
2022-11-01T21:27:18.850Z,20.25
2022-11-01T21:30:01.258Z,21.08
2022-11-01T21:32:37.733Z,21.13
2022-11-01T21:35:39.508Z,21.58
2022-11-01T21:38:34.301Z,20.75
2022-11-01T21:41:11.078Z,21.88
2022-11-01T21:43:38.343Z,22.85
2022-11-01T21:46:14.844Z,21.27
2022-11-01T21:48:41.873Z,22.23
2022-11-01T21:51:15.018Z,22.25
2022-11-01T21:53:50.504Z,19.73
2022-11-01T21:56:24.667Z,24.98
2022-11-01T21:58:51.562Z,21.30
2022-11-01T22:01:19.710Z,19.02
2022-11-01T22:03:46.958Z,19.63
2022-11-01T22:06:13.878Z,21.45
2022-11-01T22:08:42.158Z,18.55
2022-11-01T22:11:12.263Z,18.20
2022-11-01T22:13:39.407Z,19.70
2022-11-01T22:16:10.446Z,19.95
2022-11-01T22:18:38.479Z,22.25
2022-11-01T22:21:17.901Z,21.17
2022-11-01T22:23:45.998Z,21.95
2022-11-01T22:26:23.495Z,23.30
2022-11-01T22:28:52.228Z,21.50
2022-11-01T22:31:25.398Z,24.42
2022-11-01T22:33:55.068Z,26.23
2022-11-01T22:36:27.143Z,23.50
2022-11-01T22:39:27.058Z,26.67
2022-11-01T22:42:16.223Z,27.33
2022-11-01T22:45:04.385Z,25.08
2022-11-01T22:47:32.317Z,26.42
2022-11-01T22:50:03.168Z,28.60
2022-11-01T22:52:50.558Z,27.10
2022-11-01T22:55:27.451Z,26.55
2022-11-01T22:58:00.199Z,29.05
2022-11-01T23:00:39.535Z,26.42
2022-11-01T23:03:23.154Z,27.25
2022-11-01T23:05:53.945Z,27.38
2022-11-01T23:08:32.999Z,29.58
2022-11-01T23:11:02.058Z,29.00
2022-11-01T23:13:56.622Z,25.67
2022-11-01T23:16:44.285Z,29.30
2022-11-01T23:19:13.645Z,25.80
2022-11-01T23:21:41.753Z,28.27
2022-11-01T23:24:12.037Z,24.30
2022-11-01T23:26:42.156Z,25.58
2022-11-01T23:29:14.390Z,26.52
2022-11-01T23:31:44.679Z,29.73
2022-11-01T23:34:12.190Z,28.85
2022-11-01T23:36:41.323Z,28.02
2022-11-01T23:39:12.413Z,22.42
2022-11-01T23:41:53.026Z,23.38
2022-11-01T23:44:28.942Z,24.63
2022-11-01T23:47:10.033Z,24.77
2022-11-01T23:49:42.491Z,25.80
2022-11-01T23:52:41.439Z,27.40
2022-11-01T23:55:36.749Z,23.83
2022-11-01T23:58:06.977Z,24.33
